Time;durP1;ratioP1;P1;durP2;ratioP2;P2;SDS_P1;SDS_P2;PMS_P1;PMS_P2;Temp;Humidity;BMP_temperature;BMP_pressure;BME280_temperature;BME280_humidity;BME280_pressure;Samples;Min_cycle;Max_cycle;Signal;HPM_P1;HPM_P2
2023/03/22 00:01:11;;;;;;;5.43;3.90;;;;;;;10.52;100.00;96213.28;5021492;28;102984;-60
2023/03/22 00:07:01;;;;;;;3.70;3.40;;;;;;;10.45;100.00;96211.88;5029644;28;104517;-60
2023/03/22 00:09:28;;;;;;;3.80;3.47;;;;;;;10.35;100.00;96211.81;5029823;27;102608;-60
2023/03/22 00:11:54;;;;;;;6.77;4.10;;;;;;;10.35;100.00;96215.25;5014756;27;101825;-60
2023/03/22 00:14:32;;;;;;;3.30;3.10;;;;;;;10.34;100.00;96212.84;5009582;28;104808;-60
2023/03/22 00:17:01;;;;;;;3.40;3.10;;;;;;;10.34;100.00;96215.50;5016836;28;102671;-60
2023/03/22 00:19:28;;;;;;;3.77;3.47;;;;;;;10.30;100.00;96211.75;5033792;27;102022;-60
2023/03/22 00:21:55;;;;;;;4.70;3.57;;;;;;;10.27;100.00;96206.94;5028587;28;105821;-60
2023/03/22 00:24:27;;;;;;;4.07;3.40;;;;;;;10.24;100.00;96207.47;5030133;27;101862;-60
2023/03/22 00:26:54;;;;;;;4.40;3.40;;;;;;;10.12;100.00;96204.13;5023203;28;103716;-60
2023/03/22 00:29:22;;;;;;;3.73;3.43;;;;;;;10.05;100.00;96206.19;5008533;28;105494;-60
2023/03/22 00:31:50;;;;;;;4.37;3.97;;;;;;;10.05;100.00;96199.06;5009144;28;101989;-60
2023/03/22 00:34:32;;;;;;;4.07;3.67;;;;;;;9.97;100.00;96199.44;5009232;28;105102;-60
2023/03/22 00:37:00;;;;;;;5.43;3.60;;;;;;;9.92;100.00;96196.75;5016317;28;102629;-60
2023/03/22 00:39:26;;;;;;;5.27;3.97;;;;;;;9.96;100.00;96192.53;5019094;28;102269;-60
2023/03/22 00:41:53;;;;;;;5.97;3.70;;;;;;;9.52;100.00;96193.66;5012403;28;105303;-60
2023/03/22 00:45:06;;;;;;;4.23;3.70;;;;;;;9.22;100.00;96187.19;5009128;28;102028;-60
2023/03/22 00:47:33;;;;;;;5.27;4.03;;;;;;;9.33;100.00;96188.91;5009502;28;105657;-60
2023/03/22 00:50:02;;;;;;;4.00;3.60;;;;;;;9.37;100.00;96185.50;5021967;28;105867;-60
2023/03/22 00:52:29;;;;;;;4.47;4.00;;;;;;;9.42;100.00;96180.28;5008478;28;102145;-60
2023/03/22 00:58:19;;;;;;;4.27;3.63;;;;;;;9.27;100.00;96174.78;5014201;28;104399;-60
2023/03/22 01:00:46;;;;;;;4.67;3.10;;;;;;;9.30;100.00;96165.53;5008877;28;101856;-60
2023/03/22 01:03:14;;;;;;;4.10;3.70;;;;;;;9.18;100.00;96164.84;5010347;28;101665;-60
2023/03/22 01:05:45;;;;;;;5.33;3.73;;;;;;;9.20;100.00;96158.25;5011908;28;105820;-60
2023/03/22 01:08:13;;;;;;;4.07;3.57;;;;;;;8.93;100.00;96157.38;5010339;28;102301;-60
2023/03/22 01:10:42;;;;;;;3.67;3.37;;;;;;;9.00;100.00;96154.53;5011643;28;105443;-60
2023/03/22 01:13:46;;;;;;;4.83;3.73;;;;;;;8.97;100.00;96142.56;5012469;28;102011;-60
2023/03/22 01:16:13;;;;;;;4.23;3.83;;;;;;;8.50;100.00;96145.91;5012385;28;105279;-60
2023/03/22 01:18:40;;;;;;;5.03;3.50;;;;;;;8.26;100.00;96147.09;5011073;28;105136;-60
2023/03/22 01:21:10;;;;;;;4.20;3.80;;;;;;;8.40;100.00;96149.19;5012163;28;101865;-60
2023/03/22 01:24:28;;;;;;;6.27;4.30;;;;;;;8.39;100.00;96142.28;5012199;28;105254;-60
2023/03/22 01:26:55;;;;;;;5.13;4.00;;;;;;;8.27;100.00;96146.88;5027579;28;105946;-60
2023/03/22 01:29:23;;;;;;;4.90;4.50;;;;;;;8.42;100.00;96154.25;5031982;28;105228;-60
2023/03/22 01:31:50;;;;;;;4.53;4.13;;;;;;;8.40;100.00;96141.22;5015938;28;104704;-60
2023/03/22 01:34:35;;;;;;;4.60;4.20;;;;;;;8.50;100.00;96148.56;5011931;28;101872;-60
2023/03/22 01:37:04;;;;;;;5.80;4.20;;;;;;;8.51;100.00;96142.97;5013066;28;104935;-60
2023/03/22 01:39:32;;;;;;;4.47;4.07;;;;;;;8.53;100.00;96135.63;5011154;28;103904;-60
2023/03/22 01:42:04;;;;;;;5.20;3.97;;;;;;;8.53;100.00;96137.44;5017079;28;101874;-60
2023/03/22 01:44:31;;;;;;;4.57;4.17;;;;;;;8.53;100.00;96129.50;5031982;28;105042;-60
2023/03/22 01:47:00;;;;;;;5.67;4.20;;;;;;;8.58;100.00;96124.28;5030547;28;103770;-60
2023/03/22 01:49:33;;;;;;;4.60;4.20;;;;;;;8.61;100.00;96118.50;5035412;28;101892;-60
2023/03/22 01:52:06;;;;;;;4.57;4.17;;;;;;;8.57;100.00;96120.03;5031049;28;105749;-60
2023/03/22 01:54:54;;;;;;;4.07;3.63;;;;;;;8.58;100.00;96121.63;5033078;27;101699;-60
2023/03/22 01:57:36;;;;;;;4.50;4.10;;;;;;;8.32;100.00;96117.00;5002396;28;104752;-60
2023/03/22 02:00:12;;;;;;;4.37;3.80;;;;;;;8.34;100.00;96121.00;5028331;28;105275;-60
2023/03/22 02:03:04;;;;;;;4.37;3.97;;;;;;;8.37;100.00;96117.06;4992760;28;101908;-60
2023/03/22 02:05:36;;;;;;;4.20;3.70;;;;;;;8.34;100.00;96112.28;5012602;28;104909;-60
2023/03/22 02:08:07;;;;;;;5.50;4.17;;;;;;;8.24;100.00;96115.56;5010840;28;105464;-60
2023/03/22 02:10:52;;;;;;;3.90;3.50;;;;;;;8.21;100.00;96121.34;5011779;28;101770;-60
2023/03/22 02:14:04;;;;;;;4.73;4.20;;;;;;;8.30;100.00;96127.03;5014300;28;104488;-60
2023/03/22 02:17:04;;;;;;;4.33;3.73;;;;;;;8.26;100.00;96125.91;5026600;28;101752;-60
2023/03/22 02:20:21;;;;;;;4.67;3.83;;;;;;;8.31;100.00;96120.69;5030746;28;103706;-60
2023/03/22 02:23:28;;;;;;;5.83;4.80;;;;;;;8.42;100.00;96117.97;5030741;28;105162;-60
2023/03/22 02:26:22;;;;;;;4.30;3.90;;;;;;;8.42;100.00;96119.81;5029506;28;102240;-60
2023/03/22 02:28:57;;;;;;;5.77;3.73;;;;;;;8.44;100.00;96112.41;5030972;28;105206;-60
2023/03/22 02:31:49;;;;;;;6.10;3.80;;;;;;;8.37;100.00;96114.44;5030292;28;103807;-60
2023/03/22 02:35:13;;;;;;;4.10;3.70;;;;;;;8.41;100.00;96110.25;5029562;28;102020;-60
2023/03/22 02:38:00;;;;;;;5.17;3.87;;;;;;;8.41;100.00;96112.91;5026159;28;105653;-60
2023/03/22 02:40:32;;;;;;;4.27;3.87;;;;;;;8.36;100.00;96102.22;5013563;28;105042;-60
2023/03/22 02:43:29;;;;;;;4.73;4.23;;;;;;;8.34;100.00;96099.81;5014405;28;105732;-60
2023/03/22 02:46:04;;;;;;;3.90;3.60;;;;;;;8.37;100.00;96103.81;5031957;27;103123;-60
2023/03/22 02:48:37;;;;;;;3.90;3.60;;;;;;;8.36;100.00;96108.34;5030628;28;101829;-60
2023/03/22 02:51:10;;;;;;;4.63;3.93;;;;;;;8.44;100.00;96099.16;5025182;28;105107;-60
2023/03/22 02:54:19;;;;;;;4.63;3.60;;;;;;;8.44;100.00;96097.31;5009804;28;105507;-60
2023/03/22 02:56:53;;;;;;;4.07;3.70;;;;;;;8.41;100.00;96092.50;5022012;28;101927;-60
2023/03/22 02:59:24;;;;;;;4.50;3.70;;;;;;;8.29;100.00;96097.09;5032479;27;102939;-60
2023/03/22 03:01:55;;;;;;;4.53;3.93;;;;;;;8.32;100.00;96101.91;5029836;28;105505;-60
2023/03/22 03:04:45;;;;;;;4.40;3.43;;;;;;;8.16;100.00;96104.53;5033204;28;101846;-60
2023/03/22 03:07:16;;;;;;;4.63;3.63;;;;;;;7.92;100.00;96109.19;5029926;28;105366;-60
2023/03/22 03:09:44;;;;;;;3.90;3.60;;;;;;;7.90;100.00;96097.25;5030608;28;101772;-60
2023/03/22 03:12:19;;;;;;;4.47;4.07;;;;;;;7.83;100.00;96107.19;5021076;28;105263;-60
2023/03/22 03:14:55;;;;;;;4.10;3.77;;;;;;;7.87;100.00;96118.91;5025317;28;105675;-60
2023/03/22 03:17:41;;;;;;;4.23;3.80;;;;;;;7.85;100.00;96105.91;5024215;28;101988;-60
2023/03/22 03:20:23;;;;;;;4.47;3.77;;;;;;;7.93;100.00;96110.00;4992362;28;104047;-60
2023/03/22 03:23:12;;;;;;;6.00;4.10;;;;;;;7.97;100.00;96105.84;5011166;28;102449;-60
2023/03/22 03:25:47;;;;;;;4.03;3.70;;;;;;;8.04;100.00;96106.47;4995353;28;101847;-60
2023/03/22 03:28:29;;;;;;;4.30;4.00;;;;;;;8.00;100.00;96108.00;5013135;28;105120;-60
2023/03/22 03:31:01;;;;;;;4.00;3.70;;;;;;;8.03;100.00;96108.34;5010223;28;101788;-60
2023/03/22 03:33:34;;;;;;;3.93;3.60;;;;;;;7.99;100.00;96111.69;5029542;27;102748;-60
2023/03/22 03:36:08;;;;;;;4.00;3.60;;;;;;;7.98;100.00;96104.78;5031103;27;101658;-60
2023/03/22 03:38:39;;;;;;;3.50;3.20;;;;;;;7.98;100.00;96110.09;5026654;28;101946;-60
2023/03/22 03:41:11;;;;;;;4.27;3.60;;;;;;;7.95;100.00;96110.56;5010016;28;103512;-60
2023/03/22 03:43:43;;;;;;;3.17;2.87;;;;;;;7.91;100.00;96112.09;5026529;27;105477;-60
2023/03/22 03:46:10;;;;;;;5.30;3.77;;;;;;;7.48;100.00;96115.31;5011778;28;101791;-60
2023/03/22 03:48:39;;;;;;;5.57;3.30;;;;;;;7.28;100.00;96112.31;5032864;28;105680;-60
2023/03/22 03:51:07;;;;;;;5.60;3.33;;;;;;;7.34;100.00;96105.25;5029754;28;101913;-60
2023/03/22 03:54:14;;;;;;;4.87;3.83;;;;;;;7.37;100.00;96110.88;5029274;28;105290;-60
2023/03/22 03:56:41;;;;;;;5.07;3.47;;;;;;;7.15;100.00;96112.56;5027550;28;105790;-60
2023/03/22 03:59:09;;;;;;;3.90;3.50;;;;;;;7.24;100.00;96113.00;5029998;28;102110;-60
2023/03/22 04:01:36;;;;;;;3.60;3.30;;;;;;;7.19;100.00;96116.38;5023914;28;105353;-60
2023/03/22 04:04:17;;;;;;;4.33;3.87;;;;;;;7.18;100.00;96120.06;5009154;28;103627;-60
2023/03/22 04:06:50;;;;;;;4.13;3.77;;;;;;;7.22;100.00;96120.38;5017406;28;101831;-60
2023/03/22 04:09:22;;;;;;;6.47;3.90;;;;;;;7.30;100.00;96118.16;5029862;28;105309;-60
2023/03/22 04:11:53;;;;;;;4.50;4.10;;;;;;;7.34;100.00;96119.31;5032444;28;105326;-60
2023/03/22 04:17:48;;;;;;;5.63;3.73;;;;;;;7.51;100.00;96120.13;5011728;28;105033;-60
2023/03/22 04:20:16;;;;;;;5.93;3.90;;;;;;;7.58;100.00;96117.34;5009412;28;101812;-60
2023/03/22 04:22:45;;;;;;;5.97;3.70;;;;;;;7.61;100.00;96125.63;5023629;28;105279;-60
2023/03/22 04:25:16;;;;;;;4.63;3.63;;;;;;;7.74;100.00;96120.00;5011861;28;105493;-60
2023/03/22 04:28:05;;;;;;;5.20;3.87;;;;;;;7.81;100.00;96114.56;5030697;28;102014;-60
2023/03/22 04:30:35;;;;;;;5.97;3.60;;;;;;;7.78;100.00;96125.63;4990354;28;104903;-60
2023/03/22 04:33:45;;;;;;;6.23;3.17;;;;;;;7.85;100.00;96128.94;5009578;28;103502;-60
2023/03/22 04:36:19;;;;;;;3.50;3.20;;;;;;;7.81;100.00;96125.16;5012847;28;101795;-60
2023/03/22 04:39:07;;;;;;;5.17;3.40;;;;;;;7.89;100.00;96132.69;5008533;28;104216;-60
2023/03/22 04:41:35;;;;;;;4.40;3.37;;;;;;;7.89;100.00;96122.91;5009121;28;101840;-60
2023/03/22 04:44:07;;;;;;;4.90;3.23;;;;;;;7.91;100.00;96131.41;5008592;28;105275;-60
2023/03/22 04:46:38;;;;;;;4.50;3.63;;;;;;;7.97;100.00;96111.91;5020425;28;105036;-60
2023/03/22 04:49:08;;;;;;;4.90;3.23;;;;;;;8.13;100.00;96112.97;5027472;28;101919;-60
2023/03/22 04:51:39;;;;;;;3.50;3.20;;;;;;;8.07;100.00;96106.00;5029341;28;104051;-60
2023/03/22 04:57:53;;;;;;;3.27;2.87;;;;;;;7.92;100.00;96101.25;4989031;28;101753;-60
2023/03/22 05:00:22;;;;;;;3.83;2.97;;;;;;;7.88;100.00;96099.31;4998096;28;104304;-60
2023/03/22 05:03:35;;;;;;;3.60;3.30;;;;;;;7.87;100.00;96103.03;5027446;28;101820;-60
2023/03/22 05:06:06;;;;;;;5.40;2.77;;;;;;;7.88;100.00;96104.63;5028960;28;105355;-60
2023/03/22 05:09:08;;;;;;;4.20;2.60;;;;;;;7.89;100.00;96111.50;5028538;27;103415;-60
2023/03/22 05:11:36;;;;;;;5.43;2.70;;;;;;;7.83;100.00;96110.66;5013555;28;101808;-60
2023/03/22 05:17:50;;;;;;;3.13;2.70;;;;;;;7.79;100.00;96106.09;5007541;28;105831;-61
2023/03/22 05:20:17;;;;;;;4.90;2.97;;;;;;;7.79;100.00;96111.38;5008536;28;101760;-60
2023/03/22 05:22:55;;;;;;;3.77;3.03;;;;;;;7.79;100.00;96117.44;5013367;28;104363;-60
2023/03/22 05:25:24;;;;;;;3.63;3.33;;;;;;;7.67;100.00;96110.63;5020045;28;103607;-60
2023/03/22 05:27:53;;;;;;;4.03;3.57;;;;;;;7.52;100.00;96110.38;5008494;28;105246;-60
2023/03/22 05:30:46;;;;;;;4.07;3.67;;;;;;;7.43;100.00;96109.13;5005886;28;103976;-60
2023/03/22 05:33:28;;;;;;;4.33;3.93;;;;;;;7.19;100.00;96112.94;5027263;28;101787;-60
2023/03/22 05:35:57;;;;;;;5.73;3.87;;;;;;;6.69;100.00;96107.44;5028771;28;105225;-60
2023/03/22 05:38:27;;;;;;;3.80;3.40;;;;;;;6.68;100.00;96107.66;5008730;28;104806;-60
2023/03/22 05:40:57;;;;;;;3.90;3.33;;;;;;;6.87;100.00;96111.75;5025649;28;101767;-60
2023/03/22 05:43:50;;;;;;;4.27;3.87;;;;;;;6.92;100.00;96103.94;5008540;28;105555;-60
2023/03/22 05:46:18;;;;;;;5.87;4.47;;;;;;;6.77;100.00;96107.03;5007567;28;105704;-60
2023/03/22 05:49:05;;;;;;;4.77;3.30;;;;;;;6.68;100.00;96112.94;5011750;28;102366;-59
2023/03/22 05:51:35;;;;;;;4.53;3.80;;;;;;;6.78;100.00;96113.16;5007595;28;105398;-59
2023/03/22 05:54:06;;;;;;;4.57;4.17;;;;;;;6.78;100.00;96118.44;5007936;28;101834;-60
2023/03/22 05:56:39;;;;;;;3.50;3.20;;;;;;;6.95;100.00;96114.84;5009925;28;105449;-59
2023/03/22 05:59:07;;;;;;;7.10;3.67;;;;;;;7.00;100.00;96117.59;5011039;28;104875;-60
2023/03/22 06:01:35;;;;;;;4.57;3.83;;;;;;;7.05;100.00;96125.63;5011707;28;101865;-59
2023/03/22 06:04:58;;;;;;;8.60;4.50;;;;;;;7.00;100.00;96124.69;5011620;28;104490;-59
2023/03/22 06:07:25;;;;;;;6.77;3.60;;;;;;;6.94;100.00;96126.47;5010905;28;105774;-59
2023/03/22 06:09:57;;;;;;;9.37;3.90;;;;;;;6.87;100.00;96132.91;5015026;28;102177;-61
2023/03/22 06:12:27;;;;;;;4.23;3.33;;;;;;;7.04;100.00;96129.28;5010816;28;105275;-59
2023/03/22 06:15:04;;;;;;;9.63;4.33;;;;;;;7.16;100.00;96134.53;5011370;28;101793;-59
2023/03/22 06:17:33;;;;;;;9.40;4.60;;;;;;;7.41;100.00;96138.47;5024475;28;102234;-60
2023/03/22 06:20:00;;;;;;;6.13;4.20;;;;;;;7.62;100.00;96136.97;5030071;28;105473;-59
2023/03/22 06:22:29;;;;;;;5.00;3.90;;;;;;;7.83;100.00;96138.94;5016359;28;101857;-59
2023/03/22 06:25:00;;;;;;;4.93;3.87;;;;;;;8.09;100.00;96141.78;5011143;28;105004;-59
2023/03/22 06:27:36;;;;;;;5.60;4.10;;;;;;;8.15;100.00;96132.88;5010283;28;105293;-60
2023/03/22 06:30:04;;;;;;;7.60;4.87;;;;;;;8.43;100.00;96134.66;5011105;28;101925;-59
2023/03/22 06:32:38;;;;;;;8.20;4.17;;;;;;;8.69;100.00;96141.91;5013739;28;104887;-59
2023/03/22 06:35:08;;;;;;;5.33;4.40;;;;;;;8.82;100.00;96133.59;5010968;28;101889;-59
2023/03/22 06:37:35;;;;;;;4.83;4.17;;;;;;;8.94;100.00;96142.28;5010824;28;105327;-59
2023/03/22 06:40:04;;;;;;;5.43;4.30;;;;;;;9.09;100.00;96140.59;5010821;28;105328;-59
2023/03/22 06:42:32;;;;;;;8.23;4.20;;;;;;;9.08;100.00;96140.84;5030826;28;101934;-60
2023/03/22 06:45:07;;;;;;;7.00;3.93;;;;;;;9.23;100.00;96147.16;5028536;28;104800;-59
2023/03/22 06:47:36;;;;;;;7.73;3.90;;;;;;;9.43;100.00;96139.41;5010073;28;105602;-59
2023/03/22 06:50:03;;;;;;;6.80;4.30;;;;;;;9.59;100.00;96135.09;5022239;28;101840;-59
2023/03/22 06:53:08;;;;;;;11.10;4.40;;;;;;;9.73;100.00;96137.06;5014472;28;104889;-59
2023/03/22 06:55:37;;;;;;;8.83;4.30;;;;;;;9.90;100.00;96139.63;5013581;28;105162;-59
2023/03/22 06:58:22;;;;;;;8.00;3.83;;;;;;;10.01;100.00;96142.13;5018089;28;105047;-60
2023/03/22 07:00:49;;;;;;;7.23;3.93;;;;;;;10.09;100.00;96132.91;5029659;28;105553;-59
2023/03/22 07:03:56;;;;;;;7.37;3.57;;;;;;;10.24;100.00;96128.53;5030630;28;101849;-59
2023/03/22 07:06:23;;;;;;;9.23;3.83;;;;;;;10.44;100.00;96128.69;5025045;28;105101;-59
2023/03/22 07:08:51;;;;;;;6.00;3.57;;;;;;;10.51;100.00;96133.75;5024256;28;105134;-61
2023/03/22 07:11:24;;;;;;;5.07;3.60;;;;;;;10.47;100.00;96122.06;5009293;28;103188;-61
2023/03/22 07:17:33;;;;;;;8.07;3.90;;;;;;;10.78;100.00;96121.16;5016200;28;105412;-62
2023/03/22 07:20:00;;;;;;;7.10;3.20;;;;;;;10.87;100.00;96122.28;5047170;27;101862;-61
2023/03/22 07:22:28;;;;;;;8.10;3.60;;;;;;;10.82;100.00;96131.06;5009017;28;105821;-61
2023/03/22 07:25:06;;;;;;;7.07;3.27;;;;;;;11.09;100.00;96136.22;5009782;28;102040;-61
2023/03/22 07:27:35;;;;;;;3.83;3.20;;;;;;;11.34;100.00;96133.69;5026673;28;104867;-61
2023/03/22 07:30:04;;;;;;;3.30;2.83;;;;;;;11.45;100.00;96130.00;5027846;28;105054;-62
2023/03/22 07:32:33;;;;;;;3.10;2.80;;;;;;;11.44;100.00;96129.19;5029474;28;102059;-61
2023/03/22 07:35:10;;;;;;;5.37;3.40;;;;;;;11.47;100.00;96126.00;5029376;28;104905;-61
2023/03/22 07:37:39;;;;;;;6.40;3.20;;;;;;;11.55;100.00;96125.50;5029053;28;105401;-61
2023/03/22 07:40:15;;;;;;;4.47;2.90;;;;;;;11.77;100.00;96122.66;5016315;28;103429;-62
2023/03/22 07:42:43;;;;;;;4.40;3.23;;;;;;;11.91;100.00;96119.22;5014093;28;105454;-61
2023/03/22 07:45:29;;;;;;;3.30;3.00;;;;;;;11.96;100.00;96129.06;5008375;28;101753;-61
2023/03/22 07:48:27;;;;;;;4.27;3.13;;;;;;;12.07;100.00;96123.50;4999923;28;102431;-61
2023/03/22 07:51:18;;;;;;;2.93;2.70;;;;;;;12.01;100.00;96121.06;5009434;28;103670;-61
2023/03/22 07:53:48;;;;;;;3.23;2.67;;;;;;;12.31;100.00;96119.22;5009308;28;102118;-61
2023/03/22 07:56:15;;;;;;;4.23;2.67;;;;;;;12.55;100.00;96125.63;5020142;28;104943;-61
2023/03/22 07:58:44;;;;;;;3.87;3.00;;;;;;;12.86;100.00;96116.47;5028884;28;103716;-62
2023/03/22 08:01:11;;;;;;;2.80;2.60;;;;;;;12.99;100.00;96115.13;5016419;28;102017;-61
2023/03/22 08:04:21;;;;;;;3.20;2.80;;;;;;;13.22;100.00;96119.84;5009547;28;105165;-61
2023/03/22 08:07:08;;;;;;;3.77;2.60;;;;;;;13.38;100.00;96118.72;5012471;28;101977;-59
2023/03/22 08:09:37;;;;;;;3.17;2.63;;;;;;;13.87;100.00;96114.19;5009113;28;105567;-60
2023/03/22 08:12:06;;;;;;;4.67;2.50;;;;;;;13.99;100.00;96114.63;5008403;28;105697;-59
2023/03/22 08:15:22;;;;;;;3.43;2.50;;;;;;;13.67;100.00;96115.09;5009148;28;101978;-59
2023/03/22 08:17:50;;;;;;;3.93;2.70;;;;;;;13.75;100.00;96111.88;5008586;28;105714;-62
2023/03/22 08:20:39;;;;;;;3.47;2.40;;;;;;;13.70;100.00;96106.53;5008143;28;105891;-59
2023/03/22 08:23:14;;;;;;;4.20;2.63;;;;;;;14.03;100.00;96111.13;5007824;28;101955;-59
2023/03/22 08:26:05;;;;;;;4.40;2.40;;;;;;;14.28;100.00;96112.84;5009558;28;103327;-59
2023/03/22 08:28:33;;;;;;;2.73;2.40;;;;;;;14.46;100.00;96115.66;5011715;28;105032;-59
2023/03/22 08:31:00;;;;;;;6.87;2.67;;;;;;;14.43;100.00;96115.38;5008853;28;105603;-60
2023/03/22 08:34:00;;;;;;;4.60;2.70;;;;;;;14.31;100.00;96118.44;5008233;28;105821;-59
2023/03/22 08:36:27;;;;;;;5.30;2.50;;;;;;;14.59;100.00;96111.50;5009068;28;101988;-60
2023/03/22 08:39:03;;;;;;;5.73;2.70;;;;;;;14.78;100.00;96107.81;5008914;28;105260;-60
2023/03/22 08:41:53;;;;;;;4.67;2.37;;;;;;;14.82;100.00;96100.81;5008976;28;102675;-60
2023/03/22 08:44:28;;;;;;;5.33;2.60;;;;;;;15.10;100.00;96104.56;5011428;28;101869;-59
2023/03/22 08:46:56;;;;;;;4.97;2.43;;;;;;;15.17;100.00;96100.47;5011745;28;105200;-60
2023/03/22 08:49:25;;;;;;;5.03;2.77;;;;;;;15.47;100.00;96093.97;5028186;28;105369;-60
2023/03/22 08:51:58;;;;;;;4.27;2.30;;;;;;;15.49;100.00;96091.78;5015587;27;101850;-60
2023/03/22 08:55:01;;;;;;;3.70;2.10;;;;;;;15.10;100.00;96089.28;5021814;28;104251;-59
2023/03/22 08:57:51;;;;;;;4.13;2.23;;;;;;;15.60;100.00;96088.66;5018612;27;102126;-60
2023/03/22 09:00:40;;;;;;;2.00;1.83;;;;;;;15.55;91.46;96086.06;5022646;28;104926;-60
2023/03/22 09:03:35;;;;;;;2.10;1.90;;;;;;;16.18;99.50;96086.50;5029051;27;103982;-60
2023/03/22 09:06:04;;;;;;;2.87;2.00;;;;;;;16.34;88.06;96085.13;5028583;28;102224;-60
2023/03/22 09:08:37;;;;;;;2.07;1.87;;;;;;;16.35;83.78;96084.84;5026154;28;105231;-59
2023/03/22 09:11:09;;;;;;;2.33;2.00;;;;;;;16.47;88.38;96087.88;5004895;28;105058;-59
2023/03/22 09:17:02;;;;;;;3.77;1.70;;;;;;;16.79;72.30;96089.78;5013690;28;104982;-60
2023/03/22 09:19:28;;;;;;;1.67;1.57;;;;;;;17.03;67.30;96080.44;5028104;28;102230;-59
2023/03/22 09:21:57;;;;;;;3.03;1.67;;;;;;;17.20;63.60;96077.97;5011630;28;105382;-59
2023/03/22 09:24:47;;;;;;;2.10;1.83;;;;;;;17.23;65.94;96079.25;5041369;27;105009;-60
2023/03/22 09:27:14;;;;;;;3.77;1.57;;;;;;;17.17;67.52;96073.16;4988106;28;102083;-59
2023/03/22 09:29:42;;;;;;;4.53;1.83;;;;;;;17.04;61.78;96070.47;5022108;27;103619;-59
2023/03/22 09:32:14;;;;;;;3.97;1.57;;;;;;;17.34;58.57;96070.66;5012231;28;104253;-59
2023/03/22 09:34:54;;;;;;;3.03;1.47;;;;;;;17.85;59.91;96063.16;5013945;28;102036;-61
2023/03/22 09:37:29;;;;;;;2.90;1.77;;;;;;;18.23;55.97;96064.41;5031790;28;104673;-61
2023/03/22 09:39:57;;;;;;;1.50;1.40;;;;;;;18.46;54.25;96059.81;5024719;28;105143;-61
2023/03/22 09:42:32;;;;;;;1.50;1.40;;;;;;;18.31;51.89;96052.09;5011115;28;105168;-62
2023/03/22 09:45:03;;;;;;;2.67;1.67;;;;;;;18.30;49.71;96061.25;4997091;28;104982;-61
2023/03/22 09:47:34;;;;;;;1.53;1.27;;;;;;;17.96;48.63;96061.81;5029671;28;101976;-61
2023/03/22 09:50:07;;;;;;;1.40;1.30;;;;;;;18.03;50.29;96056.03;5023325;28;104169;-61
2023/03/22 09:52:35;;;;;;;1.40;1.20;;;;;;;18.63;49.72;96054.56;5015623;28;105528;-61
2023/03/22 09:55:02;;;;;;;3.00;1.50;;;;;;;17.82;48.41;96049.50;5010891;28;101975;-61
2023/03/22 09:57:32;;;;;;;1.93;1.73;;;;;;;17.27;49.15;96051.47;5012338;28;102965;-61
2023/03/22 10:00:10;;;;;;;2.47;1.50;;;;;;;17.84;49.21;96042.72;5011832;28;102484;-61
2023/03/22 10:02:50;;;;;;;2.63;1.47;;;;;;;17.60;48.18;96041.41;4992731;28;101699;-61
2023/03/22 10:05:23;;;;;;;1.83;1.40;;;;;;;17.59;47.86;96039.78;4991586;28;102487;-61
2023/03/22 10:08:19;;;;;;;1.50;1.40;;;;;;;17.80;47.89;96036.34;4992619;28;101668;-60
2023/03/22 10:10:46;;;;;;;1.73;1.30;;;;;;;17.81;48.45;96034.44;4995156;28;105510;-61
2023/03/22 10:13:36;;;;;;;2.77;1.73;;;;;;;18.16;46.32;96034.41;5010348;28;105301;-60
2023/03/22 10:16:05;;;;;;;2.30;1.80;;;;;;;18.03;47.07;96040.66;5010751;28;101854;-61
2023/03/22 10:18:35;;;;;;;1.90;1.70;;;;;;;18.22;48.83;96030.50;5011733;28;102866;-61
2023/03/22 10:21:05;;;;;;;1.87;1.43;;;;;;;18.61;45.73;96030.63;5011330;28;103169;-60
2023/03/22 10:23:41;;;;;;;2.50;1.70;;;;;;;18.32;45.13;96027.56;5015624;28;101858;-60
2023/03/22 10:26:13;;;;;;;2.10;1.30;;;;;;;18.77;45.73;96023.72;5011074;28;103082;-60
2023/03/22 10:28:44;;;;;;;1.30;1.20;;;;;;;18.93;44.60;96022.22;5012054;28;101755;-60
2023/03/22 10:31:16;;;;;;;1.83;1.60;;;;;;;18.72;43.98;96018.47;5044143;27;105409;-60
2023/03/22 10:33:52;;;;;;;1.60;1.50;;;;;;;19.14;43.91;96019.72;5011558;28;102807;-60
2023/03/22 10:36:22;;;;;;;1.70;1.60;;;;;;;18.60;44.28;96017.44;5010484;28;101811;-60
2023/03/22 10:38:54;;;;;;;3.40;1.60;;;;;;;18.33;44.03;96020.31;5011586;28;102358;-60
2023/03/22 10:41:24;;;;;;;4.83;1.60;;;;;;;18.24;44.75;96014.84;5010262;28;103222;-60
2023/03/22 10:43:55;;;;;;;1.83;1.73;;;;;;;18.32;44.91;96008.72;5044222;27;104068;-60
2023/03/22 10:46:25;;;;;;;1.73;1.50;;;;;;;19.27;45.11;96016.13;5014646;28;102304;-60
2023/03/22 10:48:57;;;;;;;1.40;1.30;;;;;;;19.76;43.44;96005.75;5011994;28;101815;-60
2023/03/22 10:51:28;;;;;;;1.47;1.37;;;;;;;20.06;43.74;96015.56;5010188;28;105060;-60
2023/03/22 10:53:57;;;;;;;1.67;1.40;;;;;;;20.33;41.37;96001.75;5042973;27;105873;-60
2023/03/22 10:56:25;;;;;;;1.90;1.57;;;;;;;20.29;42.37;96000.03;5011299;28;102028;-60
2023/03/22 10:58:51;;;;;;;1.57;1.47;;;;;;;20.59;41.65;95997.09;5011467;28;102289;-60
2023/03/22 11:01:26;;;;;;;2.60;1.57;;;;;;;20.37;41.16;95991.91;5009227;28;105932;-60
2023/03/22 11:03:57;;;;;;;1.67;1.57;;;;;;;20.20;40.24;95986.53;5011679;28;101832;-60
2023/03/22 11:06:28;;;;;;;1.50;1.40;;;;;;;19.40;39.54;95982.88;5011430;28;102543;-60
2023/03/22 11:09:00;;;;;;;1.27;1.20;;;;;;;19.23;40.56;95977.47;5014161;28;102705;-60
2023/03/22 11:11:30;;;;;;;1.40;1.30;;;;;;;19.79;39.74;95982.72;5011388;28;102314;-60
2023/03/22 11:14:06;;;;;;;1.43;1.33;;;;;;;20.73;40.93;95978.75;5009459;28;105918;-60
2023/03/22 11:16:42;;;;;;;1.73;1.60;;;;;;;20.72;39.18;95971.75;5011226;28;101721;-60
2023/03/22 11:19:15;;;;;;;1.90;1.40;;;;;;;21.15;37.92;95971.59;5009374;28;105319;-60
2023/03/22 11:21:42;;;;;;;1.53;1.30;;;;;;;21.43;37.23;95968.09;5009142;28;105783;-60
2023/03/22 11:24:14;;;;;;;1.70;1.10;;;;;;;21.82;36.51;95969.56;5010925;28;101871;-60
2023/03/22 11:26:43;;;;;;;2.23;1.60;;;;;;;21.00;35.93;95972.94;5011090;28;101993;-60
2023/03/22 11:29:16;;;;;;;1.70;1.40;;;;;;;20.78;36.33;95965.06;5010222;28;102603;-60
2023/03/22 11:31:54;;;;;;;1.30;1.30;;;;;;;19.61;37.08;95959.56;5014441;28;101781;-60
2023/03/22 11:34:22;;;;;;;1.57;1.47;;;;;;;19.46;37.26;95960.03;5009164;28;103953;-60
2023/03/22 11:36:55;;;;;;;1.43;1.20;;;;;;;19.79;37.31;95963.84;5011124;28;102154;-60
2023/03/22 11:39:27;;;;;;;2.17;1.40;;;;;;;20.01;37.04;95958.28;5009713;28;105120;-60
2023/03/22 11:42:00;;;;;;;1.43;1.20;;;;;;;20.37;35.78;95959.50;5008819;28;105508;-60
2023/03/22 11:44:44;;;;;;;1.87;1.37;;;;;;;20.66;37.76;95956.84;5010795;28;101781;-60
2023/03/22 11:47:14;;;;;;;1.63;1.43;;;;;;;20.39;36.33;95951.84;5043274;27;105506;-60
2023/03/22 11:49:45;;;;;;;2.77;1.50;;;;;;;20.53;36.09;95946.25;5010140;28;102423;-60
2023/03/22 11:52:17;;;;;;;1.60;1.50;;;;;;;20.34;37.44;95949.34;5008348;28;102349;-60
2023/03/22 11:54:50;;;;;;;2.20;1.60;;;;;;;21.16;36.59;95932.63;5013444;28;102353;-60
2023/03/22 11:57:20;;;;;;;2.87;1.37;;;;;;;21.78;35.70;95941.56;5009005;28;101869;-60
2023/03/22 11:59:54;;;;;;;4.23;1.50;;;;;;;21.37;37.80;95928.03;5009169;28;105787;-60
2023/03/22 12:02:25;;;;;;;1.40;1.30;;;;;;;21.92;36.95;95923.13;5008139;28;105381;-60
2023/03/22 12:05:00;;;;;;;2.73;1.80;;;;;;;21.52;35.53;95927.44;5010602;28;101773;-60
2023/03/22 12:07:30;;;;;;;2.00;1.80;;;;;;;21.23;36.09;95920.16;5009065;28;105505;-60
2023/03/22 12:10:02;;;;;;;2.00;1.57;;;;;;;21.59;36.44;95922.28;5009719;28;102650;-60
2023/03/22 12:12:33;;;;;;;2.17;1.60;;;;;;;21.69;38.11;95913.78;5009984;28;102164;-60
2023/03/22 12:15:04;;;;;;;1.87;1.60;;;;;;;21.89;35.44;95912.97;5010531;28;102835;-60
2023/03/22 12:17:38;;;;;;;1.87;1.60;;;;;;;21.06;37.42;95911.34;5011493;28;105401;-61
2023/03/22 12:20:18;;;;;;;1.93;1.73;;;;;;;22.11;37.83;95909.88;5042271;27;105716;-60
2023/03/22 12:22:50;;;;;;;2.50;1.80;;;;;;;22.00;37.74;95903.28;5041506;27;105383;-60
2023/03/22 12:25:22;;;;;;;2.10;1.90;;;;;;;21.17;35.68;95901.75;5009166;28;102223;-60
2023/03/22 12:27:53;;;;;;;2.50;1.83;;;;;;;21.57;39.11;95900.97;5010239;28;102797;-60